This is the latest recevied weather packets stored in our database for station/object SQ7IQO. If no packets are shown the sender has not sent any weather packets the latest 10 day(s).
| Time | Temp. | Humidity | Pressure | Rain* | Wind** | Luminosity | Snow |
|---|---|---|---|---|---|---|---|
| 1787815360 | 22.22° C | 56% | - | 0 mm | 0 m/s | - | - |
| 1787815299 | 22.22° C | 53% | 1024.6 hPa | 0 mm | 0 m/s | - | - |
| 1787815239 | 22.22° C | 54% | 1024.6 hPa | 0 mm | 0 m/s | - | - |
| 1787815179 | 22.22° C | 55% | 1024.6 hPa | 0 mm | 0 m/s | - | - |
| 1787815119 | 22.22° C | 54% | 1024.7 hPa | 0 mm | 0 m/s | - | - |
| 1787815059 | 21.67° C | 56% | 9375.4 hPa | 0 mm | 0 m/s | - | - |
| 1787814999 | 21.67° C | 56% | 1024.6 hPa | 0 mm | 0 m/s | - | - |
| 1787814939 | 21.67° C | 55% | 1024.6 hPa | 0 mm | 0 m/s | - | - |
| 1787814879 | 22.22° C | 53% | 1024.6 hPa | 0 mm | 0 m/s | - | - |
| 1787814819 | 22.22° C | 55% | 1024.6 hPa | 0 mm | 0 m/s | - | - |
| 1787814760 | 22.22° C | 56% | 1024.6 hPa | 0 mm | 0 m/s | - | - |
| 1787814699 | 21.67° C | 56% | 1024.6 hPa | 0 mm | 0 m/s | - | - |
| 1787814639 | 21.11° C | 58% | - | 0 mm | 0 m/s | - | - |
| 1787814579 | 21.11° C | 59% | 1024.6 hPa | 0 mm | 0 m/s | - | - |
| 1787814519 | 21.11° C | 59% | 1024.6 hPa | 0 mm | 0 m/s | - | - |
| 1787814459 | 20.56° C | 60% | 1024.6 hPa | 0 mm | 0 m/s | - | - |
| 1787814399 | 20.56° C | 60% | 1023.7 hPa | 0 mm | 0 m/s | - | - |
| 1787814339 | 20.56° C | 58% | 1024.6 hPa | 0 mm | 0 m/s | - | - |
| 1787814279 | 20.56° C | 61% | 1024.5 hPa | 0 mm | 0 m/s | - | - |
| 1787814219 | 20° C | 60% | 1024.6 hPa | 0 mm | 0 m/s | - | - |
| 1787814159 | 20° C | 60% | 1024.5 hPa | 0 mm | 0 m/s | - | - |
| 1787814099 | 20° C | 61% | 1024.6 hPa | 0 mm | 0 m/s | - | - |
| 1787814039 | 20° C | 60% | 1024.5 hPa | 0 mm | 0 m/s | - | - |
| 1787813979 | 21.11° C | 58% | 1024.5 hPa | 0 mm | 0.45 m/s, ° | - | - |
| 1787813919 | 21.11° C | 58% | 1024.6 hPa | 0 mm | 0 m/s | - | - |
* Rain latest hour (hover to see other rain measurements)
** Current wind speed in m/s (hover to see current wind gust speed)